sensor_id;sensor_type;location;lat;lon;timestamp;pressure;altitude;pressure_sealevel;temperature;humidity
44297;BME280;51842;47.450;8.654;2023-01-30T09:08:16;96297.38;;;-2.48;88.22
44297;BME280;51842;47.450;8.654;2023-01-30T09:10:42;96309.56;;;-2.16;85.44
44297;BME280;51842;47.450;8.654;2023-01-30T09:13:09;96325.47;;;-1.86;83.18
44297;BME280;51842;47.450;8.654;2023-01-30T09:15:35;96322.28;;;-1.65;81.44
44297;BME280;51842;47.450;8.654;2023-01-30T09:18:01;96310.88;;;-1.41;79.60
44297;BME280;51842;47.450;8.654;2023-01-30T09:20:27;96327.84;;;-1.06;78.97
44297;BME280;51842;47.450;8.654;2023-01-30T09:22:58;96314.31;;;-0.86;74.73
44297;BME280;51842;47.450;8.654;2023-01-30T09:25:26;96314.47;;;-0.65;74.82
44297;BME280;51842;47.450;8.654;2023-01-30T09:27:52;96314.13;;;-0.47;73.17
44297;BME280;51842;47.450;8.654;2023-01-30T09:30:25;96309.03;;;-0.40;73.25
44297;BME280;51842;47.450;8.654;2023-01-30T09:32:51;96326.75;;;-0.13;72.12
44297;BME280;51842;47.450;8.654;2023-01-30T09:35:17;96330.09;;;0.11;70.95
44297;BME280;51842;47.450;8.654;2023-01-30T09:37:50;96344.09;;;0.18;70.31
44297;BME280;51842;47.450;8.654;2023-01-30T09:44:40;96340.75;;;0.39;69.81
44297;BME280;51842;47.450;8.654;2023-01-30T09:54:33;96339.09;;;0.67;69.69
44297;BME280;51842;47.450;8.654;2023-01-30T09:57:20;96339.84;;;0.98;68.89
44297;BME280;51842;47.450;8.654;2023-01-30T10:00:04;96342.78;;;0.88;67.35
44297;BME280;51842;47.450;8.654;2023-01-30T10:03:10;96326.47;;;1.14;68.40
44297;BME280;51842;47.450;8.654;2023-01-30T10:05:55;96331.16;;;1.19;66.86
44297;BME280;51842;47.450;8.654;2023-01-30T10:08:41;96312.72;;;1.33;67.06
44297;BME280;51842;47.450;8.654;2023-01-30T10:24:57;96324.97;;;1.48;66.49
44297;BME280;51842;47.450;8.654;2023-01-30T10:27:30;96333.13;;;1.59;65.81
44297;BME280;51842;47.450;8.654;2023-01-30T10:30:09;96332.44;;;2.00;65.60
44297;BME280;51842;47.450;8.654;2023-01-30T10:32:56;96319.16;;;1.80;64.17
44297;BME280;51842;47.450;8.654;2023-01-30T10:35:35;96322.06;;;1.64;64.87
44297;BME280;51842;47.450;8.654;2023-01-30T10:41:41;96341.81;;;2.16;63.42
44297;BME280;51842;47.450;8.654;2023-01-30T10:44:14;96339.41;;;1.87;64.49
44297;BME280;51842;47.450;8.654;2023-01-30T10:47:32;96340.75;;;1.76;64.24
44297;BME280;51842;47.450;8.654;2023-01-30T10:50:29;96315.00;;;1.65;65.93
44297;BME280;51842;47.450;8.654;2023-01-30T10:53:41;96287.63;;;1.52;66.04
44297;BME280;51842;47.450;8.654;2023-01-30T10:59:53;96242.66;;;1.62;67.17
44297;BME280;51842;47.450;8.654;2023-01-30T11:03:31;96252.44;;;1.47;67.45
44297;BME280;51842;47.450;8.654;2023-01-30T11:06:26;96239.19;;;1.05;68.33
44297;BME280;51842;47.450;8.654;2023-01-30T11:08:56;96264.88;;;1.10;68.42
44297;BME280;51842;47.450;8.654;2023-01-30T11:11:53;96251.44;;;0.98;68.99
44297;BME280;51842;47.450;8.654;2023-01-30T11:14:20;96242.19;;;1.24;68.20
44297;BME280;51842;47.450;8.654;2023-01-30T11:16:59;96238.59;;;1.59;66.45
44297;BME280;51842;47.450;8.654;2023-01-30T11:19:34;96233.09;;;1.82;66.42
44297;BME280;51842;47.450;8.654;2023-01-30T11:22:10;96226.88;;;1.97;64.74
44297;BME280;51842;47.450;8.654;2023-01-30T11:24:44;96215.72;;;2.23;64.28
44297;BME280;51842;47.450;8.654;2023-01-30T11:27:28;96207.25;;;2.47;62.54
44297;BME280;51842;47.450;8.654;2023-01-30T11:30:14;96183.00;;;2.52;62.16
44297;BME280;51842;47.450;8.654;2023-01-30T11:32:49;96175.78;;;2.74;60.64
44297;BME280;51842;47.450;8.654;2023-01-30T11:38:30;96189.16;;;3.32;59.01
44297;BME280;51842;47.450;8.654;2023-01-30T11:41:22;96192.97;;;3.50;58.71
44297;BME280;51842;47.450;8.654;2023-01-30T11:44:03;96169.38;;;3.88;58.06
44297;BME280;51842;47.450;8.654;2023-01-30T11:46:42;96149.91;;;3.89;57.69
44297;BME280;51842;47.450;8.654;2023-01-30T11:49:15;96147.84;;;4.04;58.88
44297;BME280;51842;47.450;8.654;2023-01-30T11:51:47;96147.25;;;3.96;58.33
44297;BME280;51842;47.450;8.654;2023-01-30T11:54:47;96131.84;;;3.92;57.68
44297;BME280;51842;47.450;8.654;2023-01-30T11:57:20;96139.44;;;3.69;58.70
44297;BME280;51842;47.450;8.654;2023-01-30T12:00:00;96133.69;;;3.92;57.37
44297;BME280;51842;47.450;8.654;2023-01-30T12:02:37;96150.38;;;3.79;58.11
44297;BME280;51842;47.450;8.654;2023-01-30T12:07:52;96137.41;;;3.71;58.87
44297;BME280;51842;47.450;8.654;2023-01-30T12:10:30;96138.59;;;3.75;59.05
44297;BME280;51842;47.450;8.654;2023-01-30T12:13:05;96127.31;;;3.55;58.76
44297;BME280;51842;47.450;8.654;2023-01-30T12:16:21;96128.13;;;3.55;59.62
44297;BME280;51842;47.450;8.654;2023-01-30T12:19:39;96136.03;;;3.55;58.48
44297;BME280;51842;47.450;8.654;2023-01-30T12:25:28;96117.09;;;4.86;55.97
44297;BME280;51842;47.450;8.654;2023-01-30T12:28:23;96107.53;;;5.10;54.91
44297;BME280;51842;47.450;8.654;2023-01-30T12:33:45;96127.16;;;4.96;54.79
44297;BME280;51842;47.450;8.654;2023-01-30T12:46:27;96111.78;;;3.91;56.67
44297;BME280;51842;47.450;8.654;2023-01-30T12:49:56;96107.84;;;4.07;57.08
44297;BME280;51842;47.450;8.654;2023-01-30T12:53:05;96103.81;;;4.43;56.71
44297;BME280;51842;47.450;8.654;2023-01-30T13:05:44;96119.47;;;3.93;58.57
44297;BME280;51842;47.450;8.654;2023-01-30T13:09:31;96114.53;;;4.48;57.72
44297;BME280;51842;47.450;8.654;2023-01-30T13:12:54;96118.59;;;4.76;56.43
44297;BME280;51842;47.450;8.654;2023-01-30T13:19:04;96095.19;;;4.54;56.50
44297;BME280;51842;47.450;8.654;2023-01-30T13:25:25;96101.16;;;4.11;58.91
44297;BME280;51842;47.450;8.654;2023-01-30T13:28:16;96095.88;;;4.11;58.65
44297;BME280;51842;47.450;8.654;2023-01-30T13:30:46;96086.75;;;4.07;59.24
44297;BME280;51842;47.450;8.654;2023-01-30T13:33:39;96093.97;;;3.87;60.06
44297;BME280;51842;47.450;8.654;2023-01-30T13:39:05;96098.25;;;3.81;60.42
44297;BME280;51842;47.450;8.654;2023-01-30T13:41:54;96094.03;;;3.74;61.91
44297;BME280;51842;47.450;8.654;2023-01-30T13:44:30;96093.44;;;3.65;61.25
44297;BME280;51842;47.450;8.654;2023-01-30T13:56:40;96090.47;;;3.41;63.48
44297;BME280;51842;47.450;8.654;2023-01-30T14:02:25;96098.97;;;3.43;63.84
44297;BME280;51842;47.450;8.654;2023-01-30T14:04:56;96096.94;;;3.45;63.32
44297;BME280;51842;47.450;8.654;2023-01-30T14:07:38;96099.41;;;3.34;63.70
44297;BME280;51842;47.450;8.654;2023-01-30T14:10:19;96105.91;;;3.18;64.33
44297;BME280;51842;47.450;8.654;2023-01-30T14:12:53;96093.94;;;3.22;64.37
44297;BME280;51842;47.450;8.654;2023-01-30T14:15:27;96097.63;;;3.14;64.33
44297;BME280;51842;47.450;8.654;2023-01-30T14:20:51;96104.31;;;3.17;64.95
44297;BME280;51842;47.450;8.654;2023-01-30T14:23:32;96104.28;;;3.23;65.35
44297;BME280;51842;47.450;8.654;2023-01-30T14:25:59;96106.50;;;3.13;65.45
44297;BME280;51842;47.450;8.654;2023-01-30T14:31:00;96111.19;;;3.11;65.92
44297;BME280;51842;47.450;8.654;2023-01-30T14:51:46;96108.16;;;2.81;67.70
44297;BME280;51842;47.450;8.654;2023-01-30T14:57:16;96117.09;;;2.73;68.03
44297;BME280;51842;47.450;8.654;2023-01-30T14:59:58;96113.44;;;2.61;68.32
44297;BME280;51842;47.450;8.654;2023-01-30T15:02:33;96113.84;;;2.65;68.87
44297;BME280;51842;47.450;8.654;2023-01-30T15:08:02;96125.56;;;2.69;69.35
44297;BME280;51842;47.450;8.654;2023-01-30T15:11:29;96146.03;;;2.67;69.25
44297;BME280;51842;47.450;8.654;2023-01-30T15:14:27;96141.56;;;2.61;69.10
44297;BME280;51842;47.450;8.654;2023-01-30T15:17:29;96152.88;;;2.61;69.62
44297;BME280;51842;47.450;8.654;2023-01-30T15:33:25;96161.16;;;2.45;70.57
44297;BME280;51842;47.450;8.654;2023-01-30T15:35:53;96170.44;;;2.41;70.95
44297;BME280;51842;47.450;8.654;2023-01-30T15:38:33;96166.81;;;2.35;71.31
44297;BME280;51842;47.450;8.654;2023-01-30T15:41:07;96178.72;;;2.31;71.81
44297;BME280;51842;47.450;8.654;2023-01-30T15:47:35;96191.66;;;2.26;71.95
44297;BME280;51842;47.450;8.654;2023-01-30T15:50:09;96181.31;;;2.18;72.80
44297;BME280;51842;47.450;8.654;2023-01-30T15:52:51;96187.19;;;2.26;72.38
44297;BME280;51842;47.450;8.654;2023-01-30T15:55:28;96191.19;;;2.16;72.20
44297;BME280;51842;47.450;8.654;2023-01-30T15:58:09;96191.59;;;2.19;73.08
44297;BME280;51842;47.450;8.654;2023-01-30T16:00:50;96194.63;;;2.16;72.97
44297;BME280;51842;47.450;8.654;2023-01-30T16:03:31;96191.97;;;2.09;73.25
44297;BME280;51842;47.450;8.654;2023-01-30T16:05:59;96201.88;;;2.01;73.24
44297;BME280;51842;47.450;8.654;2023-01-30T16:08:32;96205.66;;;1.92;73.38
44297;BME280;51842;47.450;8.654;2023-01-30T16:10:59;96209.88;;;1.86;73.73
44297;BME280;51842;47.450;8.654;2023-01-30T16:13:31;96209.63;;;1.81;73.79
44297;BME280;51842;47.450;8.654;2023-01-30T16:16:12;96216.28;;;1.77;74.18
44297;BME280;51842;47.450;8.654;2023-01-30T16:18:56;96220.50;;;1.71;74.23
44297;BME280;51842;47.450;8.654;2023-01-30T16:21:35;96229.97;;;1.72;73.90
44297;BME280;51842;47.450;8.654;2023-01-30T16:24:30;96235.06;;;1.74;73.95
44297;BME280;51842;47.450;8.654;2023-01-30T16:27:05;96242.31;;;1.72;74.80
44297;BME280;51842;47.450;8.654;2023-01-30T16:29:49;96250.56;;;1.69;74.38
44297;BME280;51842;47.450;8.654;2023-01-30T16:32:27;96257.06;;;1.66;75.54
44297;BME280;51842;47.450;8.654;2023-01-30T16:37:50;96263.66;;;1.62;75.11
44297;BME280;51842;47.450;8.654;2023-01-30T16:40:24;96268.69;;;1.57;75.65
44297;BME280;51842;47.450;8.654;2023-01-30T16:43:12;96269.47;;;1.51;76.02
44297;BME280;51842;47.450;8.654;2023-01-30T16:53:31;96285.28;;;1.36;78.99
44297;BME280;51842;47.450;8.654;2023-01-30T16:58:33;96291.69;;;1.27;82.08
44297;BME280;51842;47.450;8.654;2023-01-30T17:01:05;96298.41;;;1.14;82.78
44297;BME280;51842;47.450;8.654;2023-01-30T17:03:47;96307.84;;;1.09;84.26
44297;BME280;51842;47.450;8.654;2023-01-30T17:06:36;96313.19;;;0.94;86.56
44297;BME280;51842;47.450;8.654;2023-01-30T17:17:43;96328.44;;;0.69;93.61
44297;BME280;51842;47.450;8.654;2023-01-30T17:20:12;96331.88;;;0.69;94.22
44297;BME280;51842;47.450;8.654;2023-01-30T17:22:44;96340.72;;;0.68;95.14
44297;BME280;51842;47.450;8.654;2023-01-30T17:25:38;96347.25;;;0.58;95.91
44297;BME280;51842;47.450;8.654;2023-01-30T17:28:07;96346.25;;;0.59;95.92
44297;BME280;51842;47.450;8.654;2023-01-30T17:30:34;96358.09;;;0.55;97.42
44297;BME280;51842;47.450;8.654;2023-01-30T17:33:00;96359.19;;;0.45;98.23
44297;BME280;51842;47.450;8.654;2023-01-30T17:35:26;96368.69;;;0.46;98.70
44297;BME280;51842;47.450;8.654;2023-01-30T17:37:52;96378.19;;;0.48;99.59
44297;BME280;51842;47.450;8.654;2023-01-30T17:40:33;96381.34;;;0.43;100.00
44297;BME280;51842;47.450;8.654;2023-01-30T17:43:00;96376.09;;;0.43;100.00
44297;BME280;51842;47.450;8.654;2023-01-30T17:45:27;96375.28;;;0.42;100.00
44297;BME280;51842;47.450;8.654;2023-01-30T17:47:53;96381.09;;;0.38;100.00
44297;BME280;51842;47.450;8.654;2023-01-30T17:50:19;96380.25;;;0.37;100.00
44297;BME280;51842;47.450;8.654;2023-01-30T17:52:48;96396.81;;;0.38;100.00
44297;BME280;51842;47.450;8.654;2023-01-30T17:55:16;96393.72;;;0.34;100.00
44297;BME280;51842;47.450;8.654;2023-01-30T17:57:46;96400.41;;;0.37;100.00
44297;BME280;51842;47.450;8.654;2023-01-30T18:00:20;96388.31;;;0.36;100.00
44297;BME280;51842;47.450;8.654;2023-01-30T18:02:46;96389.31;;;0.35;100.00
44297;BME280;51842;47.450;8.654;2023-01-30T18:05:13;96395.88;;;0.31;100.00
44297;BME280;51842;47.450;8.654;2023-01-30T18:07:42;96389.84;;;0.30;100.00
44297;BME280;51842;47.450;8.654;2023-01-30T18:10:17;96400.31;;;0.30;100.00
44297;BME280;51842;47.450;8.654;2023-01-30T18:12:44;96397.25;;;0.27;100.00
44297;BME280;51842;47.450;8.654;2023-01-30T18:15:13;96400.31;;;0.30;100.00
44297;BME280;51842;47.450;8.654;2023-01-30T18:17:50;96398.88;;;0.28;100.00
44297;BME280;51842;47.450;8.654;2023-01-30T18:20:22;96400.69;;;0.27;100.00
44297;BME280;51842;47.450;8.654;2023-01-30T18:22:50;96389.56;;;0.25;100.00
44297;BME280;51842;47.450;8.654;2023-01-30T18:25:16;96400.41;;;0.22;100.00
44297;BME280;51842;47.450;8.654;2023-01-30T18:27:44;96401.22;;;0.22;100.00
44297;BME280;51842;47.450;8.654;2023-01-30T18:30:16;96404.66;;;0.23;100.00
44297;BME280;51842;47.450;8.654;2023-01-30T18:32:46;96402.84;;;0.23;100.00
44297;BME280;51842;47.450;8.654;2023-01-30T18:35:15;96393.19;;;0.24;100.00
44297;BME280;51842;47.450;8.654;2023-01-30T18:37:41;96404.47;;;0.25;100.00
44297;BME280;51842;47.450;8.654;2023-01-30T18:40:11;96409.53;;;0.26;100.00
44297;BME280;51842;47.450;8.654;2023-01-30T18:42:42;96410.34;;;0.27;100.00
44297;BME280;51842;47.450;8.654;2023-01-30T18:45:09;96409.00;;;0.31;100.00
44297;BME280;51842;47.450;8.654;2023-01-30T18:47:38;96416.69;;;0.32;100.00
44297;BME280;51842;47.450;8.654;2023-01-30T18:50:08;96408.28;;;0.37;100.00
44297;BME280;51842;47.450;8.654;2023-01-30T18:52:33;96399.59;;;0.36;100.00
44297;BME280;51842;47.450;8.654;2023-01-30T18:54:59;96401.22;;;0.37;100.00
44297;BME280;51842;47.450;8.654;2023-01-30T18:57:25;96405.84;;;0.35;100.00
44297;BME280;51842;47.450;8.654;2023-01-30T18:59:51;96401.84;;;0.39;100.00
44297;BME280;51842;47.450;8.654;2023-01-30T19:02:17;96414.59;;;0.42;100.00
44297;BME280;51842;47.450;8.654;2023-01-30T19:04:43;96401.34;;;0.44;100.00
44297;BME280;51842;47.450;8.654;2023-01-30T19:07:14;96407.84;;;0.48;100.00
44297;BME280;51842;47.450;8.654;2023-01-30T19:09:40;96410.47;;;0.48;100.00
44297;BME280;51842;47.450;8.654;2023-01-30T19:12:06;96407.28;;;0.53;100.00
44297;BME280;51842;47.450;8.654;2023-01-30T19:14:50;96409.72;;;0.54;100.00
44297;BME280;51842;47.450;8.654;2023-01-30T19:17:16;96411.34;;;0.55;100.00
44297;BME280;51842;47.450;8.654;2023-01-30T19:19:45;96413.81;;;0.57;100.00
44297;BME280;51842;47.450;8.654;2023-01-30T19:22:11;96421.03;;;0.55;100.00
44297;BME280;51842;47.450;8.654;2023-01-30T19:24:37;96417.25;;;0.57;100.00
44297;BME280;51842;47.450;8.654;2023-01-30T19:27:06;96428.25;;;0.53;100.00
44297;BME280;51842;47.450;8.654;2023-01-30T19:29:34;96428.25;;;0.53;100.00
44297;BME280;51842;47.450;8.654;2023-01-30T19:32:00;96429.53;;;0.57;100.00
44297;BME280;51842;47.450;8.654;2023-01-30T19:34:29;96429.34;;;0.58;100.00
44297;BME280;51842;47.450;8.654;2023-01-30T19:36:55;96420.84;;;0.56;100.00
44297;BME280;51842;47.450;8.654;2023-01-30T19:39:21;96420.03;;;0.56;100.00
44297;BME280;51842;47.450;8.654;2023-01-30T19:41:47;96420.94;;;0.48;100.00
44297;BME280;51842;47.450;8.654;2023-01-30T19:44:13;96427.09;;;0.55;100.00
44297;BME280;51842;47.450;8.654;2023-01-30T19:46:41;96420.22;;;0.54;100.00
44297;BME280;51842;47.450;8.654;2023-01-30T19:49:09;96422.28;;;0.59;100.00
44297;BME280;51842;47.450;8.654;2023-01-30T19:51:36;96415.41;;;0.58;100.00
44297;BME280;51842;47.450;8.654;2023-01-30T19:54:09;96424.47;;;0.55;100.00
44297;BME280;51842;47.450;8.654;2023-01-30T19:56:37;96422.28;;;0.59;100.00
44297;BME280;51842;47.450;8.654;2023-01-30T19:59:12;96420.09;;;0.62;100.00
44297;BME280;51842;47.450;8.654;2023-01-30T20:01:38;96422.72;;;0.62;100.00
44297;BME280;51842;47.450;8.654;2023-01-30T20:04:07;96416.50;;;0.63;100.00
44297;BME280;51842;47.450;8.654;2023-01-30T20:06:35;96423.09;;;0.59;100.00
44297;BME280;51842;47.450;8.654;2023-01-30T20:09:07;96441.09;;;0.62;100.00
44297;BME280;51842;47.450;8.654;2023-01-30T20:11:39;96437.28;;;0.65;100.00
44297;BME280;51842;47.450;8.654;2023-01-30T20:14:06;96446.25;;;0.71;100.00
44297;BME280;51842;47.450;8.654;2023-01-30T20:16:35;96447.63;;;0.66;100.00
44297;BME280;51842;47.450;8.654;2023-01-30T20:19:13;96452.50;;;0.69;100.00
44297;BME280;51842;47.450;8.654;2023-01-30T20:21:44;96455.22;;;0.76;100.00
44297;BME280;51842;47.450;8.654;2023-01-30T20:24:14;96463.69;;;0.78;100.00
44297;BME280;51842;47.450;8.654;2023-01-30T20:26:42;96460.25;;;0.78;100.00
44297;BME280;51842;47.450;8.654;2023-01-30T20:29:10;96460.63;;;0.75;100.00
44297;BME280;51842;47.450;8.654;2023-01-30T20:31:37;96462.44;;;0.74;100.00
44297;BME280;51842;47.450;8.654;2023-01-30T20:34:12;96459.28;;;0.79;100.00
44297;BME280;51842;47.450;8.654;2023-01-30T20:36:38;96466.50;;;0.77;100.00
44297;BME280;51842;47.450;8.654;2023-01-30T20:39:04;96471.13;;;0.75;100.00
44297;BME280;51842;47.450;8.654;2023-01-30T20:41:32;96473.56;;;0.76;100.00
44297;BME280;51842;47.450;8.654;2023-01-30T20:44:01;96468.31;;;0.76;100.00
44297;BME280;51842;47.450;8.654;2023-01-30T20:46:39;96471.75;;;0.77;100.00
44297;BME280;51842;47.450;8.654;2023-01-30T20:49:12;96472.19;;;0.80;100.00
44297;BME280;51842;47.450;8.654;2023-01-30T20:51:40;96481.53;;;0.83;100.00
44297;BME280;51842;47.450;8.654;2023-01-30T20:54:14;96475.63;;;0.81;100.00
44297;BME280;51842;47.450;8.654;2023-01-30T20:56:49;96480.28;;;0.79;100.00
44297;BME280;51842;47.450;8.654;2023-01-30T20:59:21;96483.50;;;0.81;100.00
44297;BME280;51842;47.450;8.654;2023-01-30T21:01:51;96480.88;;;0.81;100.00
44297;BME280;51842;47.450;8.654;2023-01-30T21:04:23;96490.41;;;0.82;100.00
44297;BME280;51842;47.450;8.654;2023-01-30T21:06:49;96498.88;;;0.84;100.00
44297;BME280;51842;47.450;8.654;2023-01-30T21:09:22;96486.50;;;0.78;100.00
44297;BME280;51842;47.450;8.654;2023-01-30T21:11:50;96483.69;;;0.79;100.00
44297;BME280;51842;47.450;8.654;2023-01-30T21:14:18;96484.69;;;0.78;100.00
44297;BME280;51842;47.450;8.654;2023-01-30T21:16:47;96484.97;;;0.83;100.00
44297;BME280;51842;47.450;8.654;2023-01-30T21:19:17;96489.03;;;0.86;100.00
44297;BME280;51842;47.450;8.654;2023-01-30T21:21:49;96491.00;;;0.84;100.00
44297;BME280;51842;47.450;8.654;2023-01-30T21:24:22;96495.09;;;0.86;100.00
44297;BME280;51842;47.450;8.654;2023-01-30T21:26:50;96498.53;;;0.87;100.00
44297;BME280;51842;47.450;8.654;2023-01-30T21:29:21;96499.31;;;0.87;100.00
44297;BME280;51842;47.450;8.654;2023-01-30T21:31:50;96499.16;;;0.89;100.00
44297;BME280;51842;47.450;8.654;2023-01-30T21:34:16;96499.81;;;0.91;100.00
44297;BME280;51842;47.450;8.654;2023-01-30T21:36:45;96512.56;;;0.94;100.00
44297;BME280;51842;47.450;8.654;2023-01-30T21:39:40;96506.84;;;0.90;100.00
44297;BME280;51842;47.450;8.654;2023-01-30T21:42:25;96512.28;;;0.89;100.00
44297;BME280;51842;47.450;8.654;2023-01-30T21:45:09;96510.66;;;0.88;100.00
44297;BME280;51842;47.450;8.654;2023-01-30T21:47:35;96506.03;;;0.90;100.00
44297;BME280;51842;47.450;8.654;2023-01-30T21:50:01;96518.53;;;0.88;100.00
44297;BME280;51842;47.450;8.654;2023-01-30T21:52:31;96514.53;;;0.92;100.00
44297;BME280;51842;47.450;8.654;2023-01-30T21:54:57;96519.78;;;0.92;100.00
44297;BME280;51842;47.450;8.654;2023-01-30T21:57:24;96520.59;;;0.92;100.00
44297;BME280;51842;47.450;8.654;2023-01-30T21:59:49;96515.44;;;0.84;100.00
44297;BME280;51842;47.450;8.654;2023-01-30T22:02:15;96522.13;;;0.87;100.00
44297;BME280;51842;47.450;8.654;2023-01-30T22:04:41;96522.84;;;0.81;100.00
44297;BME280;51842;47.450;8.654;2023-01-30T22:07:16;96522.69;;;0.82;100.00
44297;BME280;51842;47.450;8.654;2023-01-30T22:09:42;96527.75;;;0.84;100.00
44297;BME280;51842;47.450;8.654;2023-01-30T22:12:11;96526.56;;;0.86;100.00
44297;BME280;51842;47.450;8.654;2023-01-30T22:14:37;96531.38;;;0.83;100.00
44297;BME280;51842;47.450;8.654;2023-01-30T22:17:03;96525.47;;;0.81;100.00
44297;BME280;51842;47.450;8.654;2023-01-30T22:19:32;96524.75;;;0.87;100.00
44297;BME280;51842;47.450;8.654;2023-01-30T22:22:01;96531.66;;;0.88;100.00
44297;BME280;51842;47.450;8.654;2023-01-30T22:24:27;96533.56;;;0.94;100.00
44297;BME280;51842;47.450;8.654;2023-01-30T22:26:53;96532.53;;;0.95;100.00
44297;BME280;51842;47.450;8.654;2023-01-30T22:29:22;96531.09;;;0.92;100.00
44297;BME280;51842;47.450;8.654;2023-01-30T22:31:54;96531.91;;;0.93;100.00
44297;BME280;51842;47.450;8.654;2023-01-30T22:34:26;96529.63;;;0.90;100.00
44297;BME280;51842;47.450;8.654;2023-01-30T22:36:52;96539.97;;;0.91;100.00
44297;BME280;51842;47.450;8.654;2023-01-30T22:39:21;96535.97;;;0.96;100.00
44297;BME280;51842;47.450;8.654;2023-01-30T22:41:53;96533.34;;;0.96;100.00
44297;BME280;51842;47.450;8.654;2023-01-30T22:44:22;96535.97;;;0.96;100.00
44297;BME280;51842;47.450;8.654;2023-01-30T22:46:49;96540.06;;;0.98;100.00
44297;BME280;51842;47.450;8.654;2023-01-30T22:49:16;96534.16;;;0.96;100.00
44297;BME280;51842;47.450;8.654;2023-01-30T22:51:45;96538.59;;;0.96;100.00
44297;BME280;51842;47.450;8.654;2023-01-30T22:54:15;96534.00;;;0.98;100.00
44297;BME280;51842;47.450;8.654;2023-01-30T22:56:47;96532.34;;;0.97;100.00
44297;BME280;51842;47.450;8.654;2023-01-30T22:59:18;96541.44;;;0.94;100.00
44297;BME280;51842;47.450;8.654;2023-01-30T23:01:48;96536.63;;;0.98;100.00
44297;BME280;51842;47.450;8.654;2023-01-30T23:04:22;96537.25;;;1.00;100.00
44297;BME280;51842;47.450;8.654;2023-01-30T23:06:50;96536.63;;;0.98;100.00
44297;BME280;51842;47.450;8.654;2023-01-30T23:09:21;96530.53;;;0.97;100.00
44297;BME280;51842;47.450;8.654;2023-01-30T23:11:55;96533.16;;;0.97;100.00
44297;BME280;51842;47.450;8.654;2023-01-30T23:14:49;96528.03;;;0.89;100.00
44297;BME280;51842;47.450;8.654;2023-01-30T23:17:18;96534.53;;;0.93;100.00
44297;BME280;51842;47.450;8.654;2023-01-30T23:20:03;96529.63;;;0.90;100.00
44297;BME280;51842;47.450;8.654;2023-01-30T23:22:32;96528.28;;;0.79;100.00
44297;BME280;51842;47.450;8.654;2023-01-30T23:25:01;96531.28;;;0.76;100.00
44297;BME280;51842;47.450;8.654;2023-01-30T23:27:27;96540.31;;;0.74;100.00
44297;BME280;51842;47.450;8.654;2023-01-30T23:29:53;96534.88;;;0.75;100.00
44297;BME280;51842;47.450;8.654;2023-01-30T23:32:19;96538.13;;;0.77;100.00
44297;BME280;51842;47.450;8.654;2023-01-30T23:34:46;96527.00;;;0.75;100.00
44297;BME280;51842;47.450;8.654;2023-01-30T23:37:33;96519.78;;;0.77;100.00
44297;BME280;51842;47.450;8.654;2023-01-30T23:40:19;96519.31;;;0.74;100.00
44297;BME280;51842;47.450;8.654;2023-01-30T23:42:48;96525.22;;;0.76;100.00
44297;BME280;51842;47.450;8.654;2023-01-30T23:45:14;96521.50;;;0.70;100.00
44297;BME280;51842;47.450;8.654;2023-01-30T23:47:47;96519.03;;;0.68;100.00
44297;BME280;51842;47.450;8.654;2023-01-30T23:50:18;96512.25;;;0.74;100.00
44297;BME280;51842;47.450;8.654;2023-01-30T23:52:47;96504.59;;;0.73;100.00
44297;BME280;51842;47.450;8.654;2023-01-30T23:55:25;96506.22;;;0.74;100.00
44297;BME280;51842;47.450;8.654;2023-01-30T23:57:51;96517.25;;;0.69;100.00
